Detroit, Michigan
Traffic Map
Current Weather Conditions
Detroit, Michigan
Overcast Haze
Overcast
34°
Feels Like: 28°
Wind Chill: 28° Ceiling: 12000
Heat Index: 34° Visibility: 5mi
Dew Point: 30° Wind: 7mph
Humidity: 87% Direction: 190° (S)
Pressure: 30.02in Gusts: 0mph
Raw Report DataCYQG 180300Z 19006KT 5SM BR SCT110 OVC120 01/M01 A3002 RMK AC3AC5 PRESFR SLP176
Traffic Incident Summary
Active as of:
Severity:
Category:
InformationThere was an issue retrieving the traffic information for this location. Please try a different location or try again shortly.
Advertisements